sensor_id;sensor_type;location;lat;lon;timestamp;P1;durP1;ratioP1;P2;durP2;ratioP2
18695;SDS011;22617;43.690;27.956;2023-12-14T00:01:54;17.40;;;10.63;;
18695;SDS011;22617;43.690;27.956;2023-12-14T00:06:58;20.77;;;9.63;;
18695;SDS011;22617;43.690;27.956;2023-12-14T00:12:01;18.80;;;10.13;;
18695;SDS011;22617;43.690;27.956;2023-12-14T00:17:06;16.57;;;9.40;;
18695;SDS011;22617;43.690;27.956;2023-12-14T00:22:10;18.23;;;9.57;;
18695;SDS011;22617;43.690;27.956;2023-12-14T00:27:14;16.93;;;9.60;;
18695;SDS011;22617;43.690;27.956;2023-12-14T00:32:19;17.47;;;9.77;;
18695;SDS011;22617;43.690;27.956;2023-12-14T00:37:22;16.23;;;9.43;;
18695;SDS011;22617;43.690;27.956;2023-12-14T00:42:26;14.80;;;9.33;;
18695;SDS011;22617;43.690;27.956;2023-12-14T00:47:30;16.63;;;9.37;;
18695;SDS011;22617;43.690;27.956;2023-12-14T00:52:34;15.80;;;10.03;;
18695;SDS011;22617;43.690;27.956;2023-12-14T00:57:38;15.83;;;9.83;;
18695;SDS011;22617;43.690;27.956;2023-12-14T01:02:43;16.10;;;9.63;;
18695;SDS011;22617;43.690;27.956;2023-12-14T01:07:46;17.37;;;9.80;;
18695;SDS011;22617;43.690;27.956;2023-12-14T01:12:50;17.20;;;9.63;;
18695;SDS011;22617;43.690;27.956;2023-12-14T01:17:55;18.53;;;10.07;;
18695;SDS011;22617;43.690;27.956;2023-12-14T01:22:59;20.07;;;11.00;;
18695;SDS011;22617;43.690;27.956;2023-12-14T01:28:02;18.47;;;10.33;;
18695;SDS011;22617;43.690;27.956;2023-12-14T01:33:07;21.43;;;10.90;;
18695;SDS011;22617;43.690;27.956;2023-12-14T01:38:11;20.17;;;10.47;;
18695;SDS011;22617;43.690;27.956;2023-12-14T01:43:15;16.30;;;10.50;;
18695;SDS011;22617;43.690;27.956;2023-12-14T01:48:19;18.67;;;10.67;;
18695;SDS011;22617;43.690;27.956;2023-12-14T01:53:23;18.73;;;10.60;;
18695;SDS011;22617;43.690;27.956;2023-12-14T01:58:27;21.17;;;11.60;;
18695;SDS011;22617;43.690;27.956;2023-12-14T02:03:32;22.73;;;12.37;;
18695;SDS011;22617;43.690;27.956;2023-12-14T02:08:35;21.73;;;11.60;;
18695;SDS011;22617;43.690;27.956;2023-12-14T02:13:39;20.17;;;11.77;;
18695;SDS011;22617;43.690;27.956;2023-12-14T02:18:44;19.07;;;11.10;;
18695;SDS011;22617;43.690;27.956;2023-12-14T02:24:09;19.77;;;11.03;;
18695;SDS011;22617;43.690;27.956;2023-12-14T02:29:12;16.90;;;10.40;;
18695;SDS011;22617;43.690;27.956;2023-12-14T02:34:16;20.03;;;10.77;;
18695;SDS011;22617;43.690;27.956;2023-12-14T02:39:22;19.83;;;10.70;;
18695;SDS011;22617;43.690;27.956;2023-12-14T02:44:25;20.07;;;11.20;;
18695;SDS011;22617;43.690;27.956;2023-12-14T02:49:29;19.47;;;11.40;;
18695;SDS011;22617;43.690;27.956;2023-12-14T02:54:34;19.87;;;11.73;;
18695;SDS011;22617;43.690;27.956;2023-12-14T02:59:37;17.90;;;11.07;;
18695;SDS011;22617;43.690;27.956;2023-12-14T03:04:41;21.77;;;11.87;;
18695;SDS011;22617;43.690;27.956;2023-12-14T03:09:46;20.30;;;11.47;;
18695;SDS011;22617;43.690;27.956;2023-12-14T03:14:50;24.27;;;12.60;;
18695;SDS011;22617;43.690;27.956;2023-12-14T03:19:54;23.17;;;11.63;;
18695;SDS011;22617;43.690;27.956;2023-12-14T03:24:59;19.60;;;11.13;;
18695;SDS011;22617;43.690;27.956;2023-12-14T03:30:06;18.07;;;10.50;;
18695;SDS011;22617;43.690;27.956;2023-12-14T03:35:12;17.00;;;9.90;;
18695;SDS011;22617;43.690;27.956;2023-12-14T03:40:17;16.60;;;9.57;;
18695;SDS011;22617;43.690;27.956;2023-12-14T03:45:21;15.90;;;9.63;;
18695;SDS011;22617;43.690;27.956;2023-12-14T03:50:24;18.17;;;9.10;;
18695;SDS011;22617;43.690;27.956;2023-12-14T03:55:29;18.07;;;8.87;;
18695;SDS011;22617;43.690;27.956;2023-12-14T04:00:32;17.03;;;9.40;;
18695;SDS011;22617;43.690;27.956;2023-12-14T04:05:36;13.37;;;8.00;;
18695;SDS011;22617;43.690;27.956;2023-12-14T04:10:42;16.27;;;8.67;;
18695;SDS011;22617;43.690;27.956;2023-12-14T04:15:45;14.83;;;7.77;;
18695;SDS011;22617;43.690;27.956;2023-12-14T04:20:49;14.73;;;7.77;;
18695;SDS011;22617;43.690;27.956;2023-12-14T04:25:54;14.53;;;7.17;;
18695;SDS011;22617;43.690;27.956;2023-12-14T04:30:57;11.37;;;7.03;;
18695;SDS011;22617;43.690;27.956;2023-12-14T04:36:01;13.23;;;7.07;;
18695;SDS011;22617;43.690;27.956;2023-12-14T04:41:06;15.33;;;6.77;;
18695;SDS011;22617;43.690;27.956;2023-12-14T04:46:10;11.27;;;7.17;;
18695;SDS011;22617;43.690;27.956;2023-12-14T04:51:13;12.17;;;6.87;;
18695;SDS011;22617;43.690;27.956;2023-12-14T04:56:18;12.43;;;6.37;;
18695;SDS011;22617;43.690;27.956;2023-12-14T05:01:22;10.27;;;6.23;;
18695;SDS011;22617;43.690;27.956;2023-12-14T05:06:25;9.60;;;6.33;;
18695;SDS011;22617;43.690;27.956;2023-12-14T05:11:30;12.27;;;6.90;;
18695;SDS011;22617;43.690;27.956;2023-12-14T05:16:34;12.10;;;7.13;;
18695;SDS011;22617;43.690;27.956;2023-12-14T05:21:37;10.47;;;6.17;;
18695;SDS011;22617;43.690;27.956;2023-12-14T05:26:42;11.20;;;6.23;;
18695;SDS011;22617;43.690;27.956;2023-12-14T05:31:46;13.30;;;6.03;;
18695;SDS011;22617;43.690;27.956;2023-12-14T05:36:49;10.43;;;6.30;;
18695;SDS011;22617;43.690;27.956;2023-12-14T05:41:54;10.30;;;5.93;;
18695;SDS011;22617;43.690;27.956;2023-12-14T05:46:57;11.00;;;6.00;;
18695;SDS011;22617;43.690;27.956;2023-12-14T05:52:01;9.23;;;5.73;;
18695;SDS011;22617;43.690;27.956;2023-12-14T05:57:06;8.97;;;5.47;;
18695;SDS011;22617;43.690;27.956;2023-12-14T06:02:10;10.17;;;5.33;;
18695;SDS011;22617;43.690;27.956;2023-12-14T06:07:14;10.03;;;5.77;;
18695;SDS011;22617;43.690;27.956;2023-12-14T06:12:20;10.70;;;5.90;;
18695;SDS011;22617;43.690;27.956;2023-12-14T06:17:23;14.80;;;6.17;;
18695;SDS011;22617;43.690;27.956;2023-12-14T06:22:31;12.67;;;6.40;;
18695;SDS011;22617;43.690;27.956;2023-12-14T06:27:36;10.40;;;5.83;;
18695;SDS011;22617;43.690;27.956;2023-12-14T06:32:40;11.00;;;6.00;;
18695;SDS011;22617;43.690;27.956;2023-12-14T06:37:44;10.27;;;6.43;;
18695;SDS011;22617;43.690;27.956;2023-12-14T06:42:48;13.00;;;5.97;;
18695;SDS011;22617;43.690;27.956;2023-12-14T06:47:52;13.43;;;6.93;;
18695;SDS011;22617;43.690;27.956;2023-12-14T06:52:56;13.20;;;5.97;;
18695;SDS011;22617;43.690;27.956;2023-12-14T06:58:01;11.90;;;6.07;;
18695;SDS011;22617;43.690;27.956;2023-12-14T07:03:04;11.63;;;5.77;;
18695;SDS011;22617;43.690;27.956;2023-12-14T07:08:08;10.30;;;5.90;;
18695;SDS011;22617;43.690;27.956;2023-12-14T07:13:13;11.27;;;6.00;;
18695;SDS011;22617;43.690;27.956;2023-12-14T07:18:17;10.97;;;5.70;;
18695;SDS011;22617;43.690;27.956;2023-12-14T07:23:20;8.53;;;5.57;;
18695;SDS011;22617;43.690;27.956;2023-12-14T07:28:25;8.97;;;5.20;;
18695;SDS011;22617;43.690;27.956;2023-12-14T07:33:29;8.73;;;4.40;;
18695;SDS011;22617;43.690;27.956;2023-12-14T07:38:33;9.00;;;4.43;;
18695;SDS011;22617;43.690;27.956;2023-12-14T07:43:38;9.70;;;4.40;;
18695;SDS011;22617;43.690;27.956;2023-12-14T07:48:41;7.43;;;4.50;;
18695;SDS011;22617;43.690;27.956;2023-12-14T07:53:45;8.13;;;4.07;;
18695;SDS011;22617;43.690;27.956;2023-12-14T07:58:51;6.70;;;4.20;;
18695;SDS011;22617;43.690;27.956;2023-12-14T08:03:54;10.47;;;4.53;;
18695;SDS011;22617;43.690;27.956;2023-12-14T08:08:58;9.77;;;4.87;;
18695;SDS011;22617;43.690;27.956;2023-12-14T08:14:02;8.10;;;4.50;;
18695;SDS011;22617;43.690;27.956;2023-12-14T08:19:06;7.10;;;4.53;;
18695;SDS011;22617;43.690;27.956;2023-12-14T08:24:09;6.57;;;4.67;;
18695;SDS011;22617;43.690;27.956;2023-12-14T08:29:15;9.50;;;4.80;;
18695;SDS011;22617;43.690;27.956;2023-12-14T08:34:18;6.50;;;4.10;;
18695;SDS011;22617;43.690;27.956;2023-12-14T08:39:22;9.57;;;4.10;;
18695;SDS011;22617;43.690;27.956;2023-12-14T08:44:27;9.77;;;4.40;;
18695;SDS011;22617;43.690;27.956;2023-12-14T08:49:30;6.67;;;4.17;;
18695;SDS011;22617;43.690;27.956;2023-12-14T08:54:34;8.13;;;4.13;;
18695;SDS011;22617;43.690;27.956;2023-12-14T08:59:39;9.77;;;3.97;;
18695;SDS011;22617;43.690;27.956;2023-12-14T09:04:45;8.00;;;4.13;;
18695;SDS011;22617;43.690;27.956;2023-12-14T09:09:48;7.10;;;4.20;;
18695;SDS011;22617;43.690;27.956;2023-12-14T09:14:53;7.93;;;3.87;;
18695;SDS011;22617;43.690;27.956;2023-12-14T09:19:57;5.83;;;4.17;;
18695;SDS011;22617;43.690;27.956;2023-12-14T09:25:00;8.73;;;4.00;;
18695;SDS011;22617;43.690;27.956;2023-12-14T09:30:07;8.70;;;4.20;;
18695;SDS011;22617;43.690;27.956;2023-12-14T09:35:12;6.87;;;4.60;;
18695;SDS011;22617;43.690;27.956;2023-12-14T09:40:16;13.90;;;6.57;;
18695;SDS011;22617;43.690;27.956;2023-12-14T09:45:21;7.97;;;3.93;;
18695;SDS011;22617;43.690;27.956;2023-12-14T09:50:30;6.30;;;3.93;;
18695;SDS011;22617;43.690;27.956;2023-12-14T09:55:36;8.17;;;4.00;;
18695;SDS011;22617;43.690;27.956;2023-12-14T10:00:41;6.93;;;3.90;;
18695;SDS011;22617;43.690;27.956;2023-12-14T10:05:46;7.70;;;4.53;;
18695;SDS011;22617;43.690;27.956;2023-12-14T10:10:51;11.73;;;4.30;;
18695;SDS011;22617;43.690;27.956;2023-12-14T10:15:58;10.13;;;4.43;;
18695;SDS011;22617;43.690;27.956;2023-12-14T10:21:02;10.37;;;5.20;;
18695;SDS011;22617;43.690;27.956;2023-12-14T10:26:24;7.50;;;4.43;;
18695;SDS011;22617;43.690;27.956;2023-12-14T10:31:32;9.93;;;5.40;;
18695;SDS011;22617;43.690;27.956;2023-12-14T10:36:40;9.90;;;5.00;;
18695;SDS011;22617;43.690;27.956;2023-12-14T10:41:49;8.37;;;4.30;;
18695;SDS011;22617;43.690;27.956;2023-12-14T10:47:09;7.73;;;4.10;;
18695;SDS011;22617;43.690;27.956;2023-12-14T10:52:13;6.33;;;4.33;;
18695;SDS011;22617;43.690;27.956;2023-12-14T10:57:17;8.67;;;4.47;;
18695;SDS011;22617;43.690;27.956;2023-12-14T11:02:22;8.93;;;4.03;;
18695;SDS011;22617;43.690;27.956;2023-12-14T11:12:54;8.07;;;4.17;;
18695;SDS011;22617;43.690;27.956;2023-12-14T11:18:20;7.00;;;4.40;;
18695;SDS011;22617;43.690;27.956;2023-12-14T11:23:32;9.40;;;4.70;;
18695;SDS011;22617;43.690;27.956;2023-12-14T11:28:37;8.17;;;4.80;;
18695;SDS011;22617;43.690;27.956;2023-12-14T11:33:45;9.03;;;4.30;;
18695;SDS011;22617;43.690;27.956;2023-12-14T11:38:50;8.87;;;4.03;;
18695;SDS011;22617;43.690;27.956;2023-12-14T11:43:56;9.80;;;5.33;;
18695;SDS011;22617;43.690;27.956;2023-12-14T11:49:01;20.43;;;6.03;;
18695;SDS011;22617;43.690;27.956;2023-12-14T11:54:06;8.50;;;4.70;;
18695;SDS011;22617;43.690;27.956;2023-12-14T11:59:10;8.80;;;4.60;;
18695;SDS011;22617;43.690;27.956;2023-12-14T12:04:15;5.40;;;4.10;;
18695;SDS011;22617;43.690;27.956;2023-12-14T12:09:35;6.30;;;4.10;;
18695;SDS011;22617;43.690;27.956;2023-12-14T12:14:40;7.17;;;3.90;;
18695;SDS011;22617;43.690;27.956;2023-12-14T12:19:46;7.27;;;4.43;;
18695;SDS011;22617;43.690;27.956;2023-12-14T12:24:49;9.90;;;5.10;;
18695;SDS011;22617;43.690;27.956;2023-12-14T12:30:06;7.23;;;4.90;;
18695;SDS011;22617;43.690;27.956;2023-12-14T12:35:12;7.60;;;5.10;;
18695;SDS011;22617;43.690;27.956;2023-12-14T12:40:15;10.60;;;5.47;;
18695;SDS011;22617;43.690;27.956;2023-12-14T12:45:21;9.87;;;6.07;;
18695;SDS011;22617;43.690;27.956;2023-12-14T12:50:29;9.60;;;6.10;;
18695;SDS011;22617;43.690;27.956;2023-12-14T12:55:33;9.83;;;5.83;;
18695;SDS011;22617;43.690;27.956;2023-12-14T13:00:36;6.80;;;4.80;;
18695;SDS011;22617;43.690;27.956;2023-12-14T13:05:41;11.67;;;6.10;;
18695;SDS011;22617;43.690;27.956;2023-12-14T13:10:45;10.53;;;5.83;;
18695;SDS011;22617;43.690;27.956;2023-12-14T13:15:52;10.67;;;5.77;;
18695;SDS011;22617;43.690;27.956;2023-12-14T13:20:57;10.07;;;5.90;;
18695;SDS011;22617;43.690;27.956;2023-12-14T13:26:00;10.20;;;5.90;;
18695;SDS011;22617;43.690;27.956;2023-12-14T13:31:05;13.17;;;6.63;;
18695;SDS011;22617;43.690;27.956;2023-12-14T13:36:10;12.67;;;6.50;;
18695;SDS011;22617;43.690;27.956;2023-12-14T13:41:13;11.57;;;7.23;;
18695;SDS011;22617;43.690;27.956;2023-12-14T13:46:17;12.73;;;7.37;;
18695;SDS011;22617;43.690;27.956;2023-12-14T13:51:26;11.60;;;7.40;;
18695;SDS011;22617;43.690;27.956;2023-12-14T13:56:30;12.80;;;7.30;;
18695;SDS011;22617;43.690;27.956;2023-12-14T14:01:34;12.53;;;7.77;;
18695;SDS011;22617;43.690;27.956;2023-12-14T14:06:39;14.23;;;8.70;;
18695;SDS011;22617;43.690;27.956;2023-12-14T14:11:43;15.03;;;8.33;;
18695;SDS011;22617;43.690;27.956;2023-12-14T14:16:49;13.23;;;8.20;;
18695;SDS011;22617;43.690;27.956;2023-12-14T14:21:54;16.90;;;10.07;;
18695;SDS011;22617;43.690;27.956;2023-12-14T14:26:58;19.43;;;10.53;;
18695;SDS011;22617;43.690;27.956;2023-12-14T14:32:01;22.00;;;11.67;;
18695;SDS011;22617;43.690;27.956;2023-12-14T14:37:06;19.43;;;11.03;;
18695;SDS011;22617;43.690;27.956;2023-12-14T14:42:10;18.67;;;10.97;;
18695;SDS011;22617;43.690;27.956;2023-12-14T14:47:13;22.60;;;12.27;;
18695;SDS011;22617;43.690;27.956;2023-12-14T14:52:18;19.83;;;11.80;;
18695;SDS011;22617;43.690;27.956;2023-12-14T14:57:22;20.00;;;12.10;;
18695;SDS011;22617;43.690;27.956;2023-12-14T15:02:26;22.27;;;13.00;;
18695;SDS011;22617;43.690;27.956;2023-12-14T15:07:31;20.20;;;11.33;;
18695;SDS011;22617;43.690;27.956;2023-12-14T15:12:35;22.07;;;11.57;;
18695;SDS011;22617;43.690;27.956;2023-12-14T15:17:39;26.30;;;13.17;;
18695;SDS011;22617;43.690;27.956;2023-12-14T15:22:44;20.27;;;11.10;;
18695;SDS011;22617;43.690;27.956;2023-12-14T15:27:48;18.23;;;10.90;;
18695;SDS011;22617;43.690;27.956;2023-12-14T15:32:51;21.47;;;10.70;;
18695;SDS011;22617;43.690;27.956;2023-12-14T15:37:56;18.17;;;10.20;;
18695;SDS011;22617;43.690;27.956;2023-12-14T15:43:00;19.87;;;10.77;;
18695;SDS011;22617;43.690;27.956;2023-12-14T15:48:03;18.33;;;10.10;;
18695;SDS011;22617;43.690;27.956;2023-12-14T15:53:10;19.30;;;11.00;;
18695;SDS011;22617;43.690;27.956;2023-12-14T15:58:13;20.47;;;12.80;;
18695;SDS011;22617;43.690;27.956;2023-12-14T16:03:17;20.63;;;12.97;;
18695;SDS011;22617;43.690;27.956;2023-12-14T16:08:22;19.83;;;11.87;;
18695;SDS011;22617;43.690;27.956;2023-12-14T16:13:25;19.53;;;11.20;;
18695;SDS011;22617;43.690;27.956;2023-12-14T16:18:30;16.97;;;9.50;;
18695;SDS011;22617;43.690;27.956;2023-12-14T16:23:35;18.97;;;9.90;;
18695;SDS011;22617;43.690;27.956;2023-12-14T16:28:40;16.33;;;8.37;;
18695;SDS011;22617;43.690;27.956;2023-12-14T16:33:43;16.80;;;7.97;;
18695;SDS011;22617;43.690;27.956;2023-12-14T16:38:48;13.10;;;7.60;;
18695;SDS011;22617;43.690;27.956;2023-12-14T16:43:53;13.27;;;8.33;;
18695;SDS011;22617;43.690;27.956;2023-12-14T16:48:57;16.77;;;9.00;;
18695;SDS011;22617;43.690;27.956;2023-12-14T16:54:03;14.43;;;7.90;;
18695;SDS011;22617;43.690;27.956;2023-12-14T16:59:07;12.93;;;7.47;;
18695;SDS011;22617;43.690;27.956;2023-12-14T17:04:15;12.27;;;7.40;;
18695;SDS011;22617;43.690;27.956;2023-12-14T17:09:20;10.93;;;6.87;;
18695;SDS011;22617;43.690;27.956;2023-12-14T17:14:24;14.10;;;6.50;;
18695;SDS011;22617;43.690;27.956;2023-12-14T17:19:28;13.63;;;6.90;;
18695;SDS011;22617;43.690;27.956;2023-12-14T17:24:33;13.23;;;6.83;;
18695;SDS011;22617;43.690;27.956;2023-12-14T17:29:36;11.93;;;7.23;;
18695;SDS011;22617;43.690;27.956;2023-12-14T17:34:42;11.80;;;6.73;;
18695;SDS011;22617;43.690;27.956;2023-12-14T17:39:48;11.20;;;6.27;;
18695;SDS011;22617;43.690;27.956;2023-12-14T17:44:53;10.70;;;6.10;;
18695;SDS011;22617;43.690;27.956;2023-12-14T17:49:57;12.00;;;5.93;;
18695;SDS011;22617;43.690;27.956;2023-12-14T17:55:06;11.13;;;6.03;;
18695;SDS011;22617;43.690;27.956;2023-12-14T18:00:11;12.33;;;6.20;;
18695;SDS011;22617;43.690;27.956;2023-12-14T18:05:15;10.07;;;5.67;;
18695;SDS011;22617;43.690;27.956;2023-12-14T18:10:20;10.77;;;5.90;;
18695;SDS011;22617;43.690;27.956;2023-12-14T18:15:24;12.23;;;6.13;;
18695;SDS011;22617;43.690;27.956;2023-12-14T18:20:29;9.63;;;5.97;;
18695;SDS011;22617;43.690;27.956;2023-12-14T18:25:34;12.30;;;6.67;;
18695;SDS011;22617;43.690;27.956;2023-12-14T18:30:39;10.80;;;5.90;;
18695;SDS011;22617;43.690;27.956;2023-12-14T18:35:43;11.67;;;6.23;;
18695;SDS011;22617;43.690;27.956;2023-12-14T18:40:48;12.30;;;6.27;;
18695;SDS011;22617;43.690;27.956;2023-12-14T18:45:52;11.50;;;6.20;;
18695;SDS011;22617;43.690;27.956;2023-12-14T18:50:56;11.90;;;6.43;;
18695;SDS011;22617;43.690;27.956;2023-12-14T18:56:01;10.53;;;6.10;;
18695;SDS011;22617;43.690;27.956;2023-12-14T19:01:04;10.47;;;5.50;;
18695;SDS011;22617;43.690;27.956;2023-12-14T19:06:08;12.73;;;6.47;;
18695;SDS011;22617;43.690;27.956;2023-12-14T19:11:17;10.47;;;5.40;;
18695;SDS011;22617;43.690;27.956;2023-12-14T19:16:21;10.67;;;5.30;;
18695;SDS011;22617;43.690;27.956;2023-12-14T19:21:26;10.10;;;5.20;;
18695;SDS011;22617;43.690;27.956;2023-12-14T19:26:31;10.57;;;5.77;;
18695;SDS011;22617;43.690;27.956;2023-12-14T19:31:35;8.37;;;4.77;;
18695;SDS011;22617;43.690;27.956;2023-12-14T19:36:38;8.90;;;5.20;;
18695;SDS011;22617;43.690;27.956;2023-12-14T19:41:43;9.97;;;5.67;;
18695;SDS011;22617;43.690;27.956;2023-12-14T19:46:47;9.97;;;5.63;;
18695;SDS011;22617;43.690;27.956;2023-12-14T19:51:50;8.60;;;5.10;;
18695;SDS011;22617;43.690;27.956;2023-12-14T19:56:55;9.43;;;4.57;;
18695;SDS011;22617;43.690;27.956;2023-12-14T20:01:59;9.60;;;4.37;;
18695;SDS011;22617;43.690;27.956;2023-12-14T20:07:03;8.13;;;4.40;;
18695;SDS011;22617;43.690;27.956;2023-12-14T20:12:08;8.93;;;4.53;;
18695;SDS011;22617;43.690;27.956;2023-12-14T20:17:12;6.60;;;3.90;;
18695;SDS011;22617;43.690;27.956;2023-12-14T20:22:15;7.37;;;3.90;;
18695;SDS011;22617;43.690;27.956;2023-12-14T20:27:20;8.40;;;4.60;;
18695;SDS011;22617;43.690;27.956;2023-12-14T20:32:23;7.57;;;3.80;;
18695;SDS011;22617;43.690;27.956;2023-12-14T20:37:29;8.67;;;4.10;;
18695;SDS011;22617;43.690;27.956;2023-12-14T20:42:34;6.73;;;3.87;;
18695;SDS011;22617;43.690;27.956;2023-12-14T20:47:37;8.20;;;3.90;;
18695;SDS011;22617;43.690;27.956;2023-12-14T20:52:41;6.97;;;4.50;;
18695;SDS011;22617;43.690;27.956;2023-12-14T20:57:46;7.30;;;4.80;;
18695;SDS011;22617;43.690;27.956;2023-12-14T21:02:50;9.13;;;4.67;;
18695;SDS011;22617;43.690;27.956;2023-12-14T21:07:54;10.60;;;4.60;;
18695;SDS011;22617;43.690;27.956;2023-12-14T21:12:59;9.30;;;4.60;;
18695;SDS011;22617;43.690;27.956;2023-12-14T21:18:02;5.10;;;3.43;;
18695;SDS011;22617;43.690;27.956;2023-12-14T21:23:06;6.30;;;3.67;;
18695;SDS011;22617;43.690;27.956;2023-12-14T21:28:12;6.07;;;3.53;;
18695;SDS011;22617;43.690;27.956;2023-12-14T21:33:15;6.00;;;3.60;;
18695;SDS011;22617;43.690;27.956;2023-12-14T21:38:19;7.40;;;3.90;;
18695;SDS011;22617;43.690;27.956;2023-12-14T21:43:25;6.33;;;3.90;;
18695;SDS011;22617;43.690;27.956;2023-12-14T21:48:29;5.47;;;3.37;;
18695;SDS011;22617;43.690;27.956;2023-12-14T21:53:32;8.03;;;3.90;;
18695;SDS011;22617;43.690;27.956;2023-12-14T21:58:37;7.97;;;4.20;;
18695;SDS011;22617;43.690;27.956;2023-12-14T22:03:41;9.07;;;5.00;;
18695;SDS011;22617;43.690;27.956;2023-12-14T22:08:44;9.90;;;5.30;;
18695;SDS011;22617;43.690;27.956;2023-12-14T22:13:49;11.70;;;5.30;;
18695;SDS011;22617;43.690;27.956;2023-12-14T22:18:53;9.57;;;4.73;;
18695;SDS011;22617;43.690;27.956;2023-12-14T22:23:56;11.30;;;5.40;;
18695;SDS011;22617;43.690;27.956;2023-12-14T22:29:01;10.03;;;5.50;;
18695;SDS011;22617;43.690;27.956;2023-12-14T22:34:05;8.60;;;5.07;;
18695;SDS011;22617;43.690;27.956;2023-12-14T22:39:11;9.17;;;5.37;;
18695;SDS011;22617;43.690;27.956;2023-12-14T22:44:16;10.40;;;5.20;;
18695;SDS011;22617;43.690;27.956;2023-12-14T22:49:19;10.93;;;5.30;;
18695;SDS011;22617;43.690;27.956;2023-12-14T22:54:23;11.73;;;6.27;;
18695;SDS011;22617;43.690;27.956;2023-12-14T22:59:28;11.57;;;5.53;;
18695;SDS011;22617;43.690;27.956;2023-12-14T23:04:31;10.73;;;5.23;;
18695;SDS011;22617;43.690;27.956;2023-12-14T23:09:36;13.50;;;7.03;;
18695;SDS011;22617;43.690;27.956;2023-12-14T23:14:40;11.37;;;6.40;;
18695;SDS011;22617;43.690;27.956;2023-12-14T23:19:44;10.83;;;6.10;;
18695;SDS011;22617;43.690;27.956;2023-12-14T23:24:47;13.47;;;7.17;;
18695;SDS011;22617;43.690;27.956;2023-12-14T23:29:52;13.80;;;7.47;;
18695;SDS011;22617;43.690;27.956;2023-12-14T23:34:56;14.63;;;7.97;;
18695;SDS011;22617;43.690;27.956;2023-12-14T23:40:00;16.27;;;7.90;;
18695;SDS011;22617;43.690;27.956;2023-12-14T23:45:06;26.50;;;13.03;;
18695;SDS011;22617;43.690;27.956;2023-12-14T23:50:10;28.37;;;14.23;;
18695;SDS011;22617;43.690;27.956;2023-12-14T23:55:13;33.07;;;14.63;;
